MATER UKLL (LWO)

Остані дані METAR із Аеропорта UKLL (LWO)

L'Viv, Ukraine (UKLL) 49-49N 023-57E 323M
Sep 15, 2019 - 12:00 PM EDT / 2019.09.15 1600 UTC
Wind: from the WSW (250 degrees) at 7 MPH (6 KT):0
Visibility: greater than 7 mile(s):0
Temperature: 64 F (18 C)
Dew Point: 41 F (5 C)
Relative Humidity: 42%
Pressure (altimeter): 30.12 in. Hg (1020 hPa)
ob: UKLL 151600Z 25003MPS CAVOK 18/05 Q1020 R31/CLRD// NOSIG
cycle: 16